Terminal Aerodrome Forecast
Issued by NWS

Home | Current Version | Previous Version | Text Only | Print | Product List | Glossary On
Versions: 1 2 3 4 5 6 7 8 9 10 11 12 13 14 15 16 17 18
000
FTUS46 KSTO 241120
TAFSAC
TAF
KSAC 241120Z 2412/2512 15003KT 2SM BR BKN015
     FM241400 15010KT 1SM BR OVC004
     FM242100 17010G20KT 2SM -RA BR OVC030
     FM250100 18010G20KT 5SM -RA OVC030
     FM250800 24005KT 4SM BR BKN030=

USA.gov is the U.S. government's official web portal to all federal, state and local government web resources and services.